Time;durP1;ratioP1;P1;durP2;ratioP2;P2;SDS_P1;SDS_P2;PMS_P1;PMS_P2;Temp;Humidity;BMP_temperature;BMP_pressure;BME280_temperature;BME280_humidity;BME280_pressure;Samples;Min_cycle;Max_cycle;Signal;HPM_P1;HPM_P2
2023/02/08 00:01:50;;;;;;;22.08;13.75;;;3.80;76.90;;;;;;5047212;28;20509;-76
2023/02/08 00:04:16;;;;;;;19.73;13.07;;;3.70;77.00;;;;;;5048743;28;20027;-76
2023/02/08 00:06:41;;;;;;;20.35;13.27;;;3.70;77.00;;;;;;5048830;28;20427;-76
2023/02/08 00:09:07;;;;;;;20.42;13.45;;;3.70;77.00;;;;;;5048191;28;20021;-75
2023/02/08 00:11:33;;;;;;;17.70;12.95;;;3.70;77.20;;;;;;5048462;28;20100;-76
2023/02/08 00:14:01;;;;;;;19.92;12.73;;;3.70;77.40;;;;;;5048609;28;20033;-76
2023/02/08 00:16:26;;;;;;;18.20;13.27;;;3.70;77.40;;;;;;5048247;28;20399;-76
2023/02/08 00:18:52;;;;;;;16.85;12.40;;;3.70;77.10;;;;;;5048501;28;20027;-76
2023/02/08 00:21:18;;;;;;;18.45;13.13;;;3.70;77.10;;;;;;5047942;28;20076;-76
2023/02/08 00:23:45;;;;;;;20.75;14.07;;;3.60;77.10;;;;;;5046854;28;20021;-76
2023/02/08 00:26:11;;;;;;;17.10;12.40;;;3.60;77.20;;;;;;5047841;28;20405;-76
2023/02/08 00:28:36;;;;;;;19.90;13.50;;;3.60;77.30;;;;;;5048362;28;20025;-76
2023/02/08 00:31:03;;;;;;;19.75;12.88;;;3.60;77.30;;;;;;5048035;28;20471;-75
2023/02/08 00:33:28;;;;;;;19.65;12.93;;;3.60;77.40;;;;;;5048381;28;20028;-75
2023/02/08 00:35:59;;;;;;;19.60;13.73;;;3.60;77.40;;;;;;5047698;28;20017;-76
2023/02/08 00:38:24;;;;;;;21.63;14.27;;;3.60;77.40;;;;;;5060866;28;20017;-75
2023/02/08 00:40:50;;;;;;;21.30;14.77;;;3.60;77.40;;;;;;5047986;28;20110;-75
2023/02/08 00:43:15;;;;;;;20.85;13.07;;;3.60;77.60;;;;;;5048609;28;20028;-75
2023/02/08 00:45:41;;;;;;;18.13;13.75;;;3.60;77.60;;;;;;5047767;28;20536;-75
2023/02/08 00:48:07;;;;;;;18.80;12.00;;;3.60;77.80;;;;;;5047917;28;20846;-75
2023/02/08 00:50:32;;;;;;;18.67;13.13;;;3.60;77.80;;;;;;5047733;28;20043;-75
2023/02/08 00:52:59;;;;;;;22.10;14.25;;;3.50;77.80;;;;;;5046998;28;20017;-75
2023/02/08 00:55:25;;;;;;;21.75;13.63;;;3.50;77.90;;;;;;5048221;28;20118;-76
2023/02/08 00:57:50;;;;;;;21.15;13.93;;;3.50;78.00;;;;;;5046760;28;20590;-76
2023/02/08 01:00:16;;;;;;;18.85;13.50;;;3.50;78.10;;;;;;5047329;28;20025;-76
2023/02/08 01:02:42;;;;;;;23.73;16.00;;;3.50;78.20;;;;;;5046994;28;20406;-76
2023/02/08 01:05:09;;;;;;;20.88;14.68;;;3.50;78.20;;;;;;5039762;28;20037;-76
2023/02/08 01:07:36;;;;;;;20.80;14.05;;;3.50;78.50;;;;;;5051120;28;20021;-75
2023/02/08 01:10:03;;;;;;;20.05;14.00;;;3.40;78.30;;;;;;5033500;28;20488;-74
2023/02/08 01:12:29;;;;;;;21.15;14.80;;;3.40;78.40;;;;;;5051980;28;20021;-76
2023/02/08 01:14:55;;;;;;;21.65;15.13;;;3.40;79.20;;;;;;5049649;28;20024;-75
2023/02/08 01:17:21;;;;;;;18.80;13.50;;;3.30;78.80;;;;;;5050071;28;20074;-76
2023/02/08 01:19:46;;;;;;;20.58;15.02;;;3.40;79.00;;;;;;5052130;28;20103;-76
2023/02/08 01:22:12;;;;;;;21.50;14.77;;;3.40;79.00;;;;;;5051940;28;20037;-75
2023/02/08 01:24:38;;;;;;;23.15;14.20;;;3.30;78.70;;;;;;5052149;28;20043;-78
2023/02/08 01:27:03;;;;;;;21.77;14.82;;;3.30;78.60;;;;;;5051184;28;20052;-75
2023/02/08 01:29:29;;;;;;;26.80;15.13;;;3.30;78.80;;;;;;5051461;28;20029;-75
2023/02/08 01:31:54;;;;;;;23.90;14.57;;;3.30;78.80;;;;;;5051147;28;20523;-76
2023/02/08 01:34:21;;;;;;;22.35;14.55;;;3.30;79.00;;;;;;5051520;28;20049;-76
2023/02/08 01:36:47;;;;;;;22.33;14.80;;;3.20;78.90;;;;;;5051779;28;20025;-76
2023/02/08 01:39:12;;;;;;;25.75;15.68;;;3.30;79.00;;;;;;5050869;28;20021;-75
2023/02/08 01:41:43;;;;;;;23.42;15.40;;;3.20;79.00;;;;;;5050594;28;20838;-75
2023/02/08 01:44:11;;;;;;;23.55;15.23;;;3.20;79.00;;;;;;5051264;28;20032;-75
2023/02/08 01:46:42;;;;;;;22.25;14.93;;;3.20;79.10;;;;;;5051285;28;20028;-75
2023/02/08 01:49:16;;;;;;;23.83;15.40;;;3.20;79.60;;;;;;5049544;28;20029;-75
2023/02/08 01:51:49;;;;;;;23.35;15.98;;;3.20;79.00;;;;;;5051000;28;20071;-75
2023/02/08 01:54:17;;;;;;;20.13;14.48;;;3.20;79.00;;;;;;5050727;28;20036;-75
2023/02/08 01:56:45;;;;;;;23.60;14.43;;;3.20;79.10;;;;;;5051372;28;20029;-75
2023/02/08 01:59:25;;;;;;;23.77;14.27;;;3.20;78.90;;;;;;5050609;28;20029;-76
2023/02/08 02:01:53;;;;;;;23.90;14.70;;;3.20;78.80;;;;;;5051141;28;20612;-76
2023/02/08 02:04:19;;;;;;;25.70;15.57;;;3.20;78.60;;;;;;5051107;28;20013;-75
2023/02/08 02:06:50;;;;;;;21.05;14.80;;;3.20;78.50;;;;;;5050586;28;20475;-74
2023/02/08 02:09:45;;;;;;;21.88;14.85;;;3.20;78.60;;;;;;5050937;28;20079;-77
2023/02/08 02:12:12;;;;;;;24.25;13.82;;;3.20;79.10;;;;;;5045559;28;20728;-75
2023/02/08 02:14:39;;;;;;;24.83;14.90;;;3.20;78.40;;;;;;5050546;28;20025;-75
2023/02/08 02:17:05;;;;;;;26.00;15.10;;;3.20;78.20;;;;;;5051028;28;20025;-75
2023/02/08 02:20:02;;;;;;;28.45;15.40;;;3.20;78.00;;;;;;5050399;28;20528;-74
2023/02/08 02:22:30;;;;;;;24.83;14.60;;;3.20;77.90;;;;;;5034538;28;20037;-75
2023/02/08 02:25:17;;;;;;;20.85;13.20;;;3.20;77.80;;;;;;5044985;28;20029;-75
2023/02/08 02:28:04;;;;;;;22.35;15.07;;;3.20;77.70;;;;;;5035490;28;20052;-76
2023/02/08 02:30:41;;;;;;;21.27;14.20;;;3.10;77.50;;;;;;5044887;28;20043;-76
2023/02/08 02:33:17;;;;;;;23.80;15.07;;;3.10;78.10;;;;;;5050566;28;20025;-75
2023/02/08 02:36:00;;;;;;;20.80;13.38;;;3.10;77.20;;;;;;5050120;28;20075;-75
2023/02/08 02:39:01;;;;;;;26.20;15.20;;;3.10;77.20;;;;;;5061766;28;20035;-75
2023/02/08 02:44:36;;;;;;;22.75;14.10;;;3.10;77.20;;;;;;5050921;28;20035;-75
2023/02/08 02:47:28;;;;;;;22.00;14.27;;;3.10;77.30;;;;;;5040569;28;20098;-75
2023/02/08 02:50:16;;;;;;;25.77;14.18;;;3.10;77.20;;;;;;5051168;28;20024;-75
2023/02/08 02:52:58;;;;;;;24.30;14.40;;;3.10;77.00;;;;;;5050155;28;20025;-74
2023/02/08 02:55:25;;;;;;;22.80;14.35;;;3.10;77.10;;;;;;5049889;28;20086;-75
2023/02/08 02:57:54;;;;;;;22.23;14.00;;;3.10;77.00;;;;;;5048566;28;20029;-75
2023/02/08 03:00:24;;;;;;;22.10;14.23;;;3.10;77.00;;;;;;5048543;28;20025;-75
2023/02/08 03:02:50;;;;;;;22.65;14.40;;;3.10;76.80;;;;;;5049797;28;20037;-75
2023/02/08 03:05:16;;;;;;;24.25;15.20;;;3.10;76.80;;;;;;5049672;28;20032;-75
2023/02/08 03:08:07;;;;;;;22.88;13.40;;;3.10;76.70;;;;;;5049402;28;20017;-75
2023/02/08 03:10:52;;;;;;;20.08;13.48;;;3.10;76.80;;;;;;5049879;28;20475;-75
2023/02/08 03:13:32;;;;;;;24.65;14.27;;;3.10;76.60;;;;;;5050868;28;20028;-75
2023/02/08 03:16:00;;;;;;;24.08;14.98;;;3.10;76.50;;;;;;5049770;28;20048;-75
2023/02/08 03:18:51;;;;;;;25.65;14.13;;;3.10;76.50;;;;;;5050266;28;20111;-75
2023/02/08 03:21:20;;;;;;;25.17;14.15;;;3.00;76.60;;;;;;5050162;28;20021;-75
2023/02/08 03:24:27;;;;;;;24.13;14.85;;;3.00;76.50;;;;;;5051044;28;20067;-75
2023/02/08 03:27:19;;;;;;;20.42;13.80;;;3.00;76.50;;;;;;5044166;28;20121;-74
2023/02/08 03:29:57;;;;;;;22.52;14.07;;;3.00;76.40;;;;;;5030772;28;20435;-75
2023/02/08 03:32:57;;;;;;;23.58;14.32;;;2.90;76.50;;;;;;5047495;28;20065;-75
2023/02/08 03:35:29;;;;;;;20.05;13.23;;;2.90;77.00;;;;;;5043894;28;20033;-75
2023/02/08 03:38:09;;;;;;;21.60;13.23;;;2.90;76.30;;;;;;5052595;28;20021;-75
2023/02/08 03:40:40;;;;;;;;;;;2.90;76.30;;;;;;5037768;28;20036;-74
2023/02/08 03:43:32;;;;;;;21.23;14.43;;;2.90;76.50;;;;;;5055153;28;19924;-74
2023/02/08 03:46:11;;;;;;;23.88;14.10;;;2.90;76.40;;;;;;5056122;28;20107;-75
2023/02/08 03:48:41;;;;;;;19.88;12.57;;;2.80;76.40;;;;;;5056532;28;20051;-74
2023/02/08 03:51:08;;;;;;;21.00;13.57;;;2.80;76.50;;;;;;5064441;28;20040;-74
2023/02/08 03:53:38;;;;;;;23.38;14.07;;;2.80;76.50;;;;;;5057826;28;20482;-74
2023/02/08 03:56:10;;;;;;;20.08;13.75;;;2.80;76.50;;;;;;5056426;28;20104;-74
2023/02/08 03:58:48;;;;;;;21.88;14.13;;;2.80;76.70;;;;;;5056522;28;20043;-75
2023/02/08 04:01:23;;;;;;;21.90;13.57;;;2.80;76.70;;;;;;5055868;28;20398;-75
2023/02/08 04:03:52;;;;;;;24.65;12.93;;;2.80;76.50;;;;;;5056373;28;20120;-74
2023/02/08 04:06:19;;;;;;;20.45;13.65;;;2.80;76.50;;;;;;5058542;28;20120;-75
2023/02/08 04:08:45;;;;;;;20.73;14.25;;;2.80;76.40;;;;;;5056764;28;20052;-74
2023/02/08 04:11:10;;;;;;;22.65;14.02;;;2.80;76.20;;;;;;5053168;28;20083;-73
2023/02/08 04:13:36;;;;;;;24.15;13.82;;;2.80;76.20;;;;;;5053565;28;20071;-75
2023/02/08 04:16:02;;;;;;;19.73;13.20;;;2.80;76.00;;;;;;5052503;28;20111;-75
2023/02/08 04:18:30;;;;;;;20.83;13.77;;;2.80;76.00;;;;;;5052656;28;20080;-75
2023/02/08 04:20:57;;;;;;;22.65;13.73;;;2.90;75.70;;;;;;5053086;28;20244;-75
2023/02/08 04:23:23;;;;;;;22.70;13.85;;;2.90;75.50;;;;;;5052631;28;20060;-74
2023/02/08 04:25:49;;;;;;;23.80;14.32;;;2.90;75.30;;;;;;5054067;28;20054;-74
2023/02/08 04:28:15;;;;;;;23.17;13.63;;;2.90;75.20;;;;;;5053706;28;20403;-75
2023/02/08 04:30:41;;;;;;;20.35;13.35;;;2.90;75.10;;;;;;5054457;28;20025;-75
2023/02/08 04:33:07;;;;;;;22.50;14.70;;;2.90;74.90;;;;;;5054636;28;20110;-75
2023/02/08 04:35:33;;;;;;;20.88;13.50;;;2.90;74.70;;;;;;5052917;28;20013;-75
2023/02/08 04:38:00;;;;;;;24.13;14.40;;;2.90;74.70;;;;;;5060687;28;20035;-74
2023/02/08 04:40:25;;;;;;;22.83;13.73;;;2.90;74.80;;;;;;5055431;28;20040;-75
2023/02/08 04:42:51;;;;;;;19.63;13.18;;;2.90;74.70;;;;;;5055029;28;20037;-75
2023/02/08 04:45:16;;;;;;;20.02;12.57;;;2.90;74.80;;;;;;5056132;28;20021;-74
2023/02/08 04:47:42;;;;;;;22.27;14.20;;;2.80;75.10;;;;;;5054341;28;20479;-75
2023/02/08 04:50:07;;;;;;;22.77;12.63;;;2.80;75.00;;;;;;5055228;28;20534;-75
2023/02/08 04:52:33;;;;;;;22.27;13.38;;;2.80;75.00;;;;;;5054665;28;20429;-75
2023/02/08 04:54:59;;;;;;;21.08;13.50;;;2.80;75.10;;;;;;5055383;28;20029;-75
2023/02/08 04:57:24;;;;;;;21.98;14.25;;;2.70;74.90;;;;;;5056576;28;20029;-75
2023/02/08 04:59:50;;;;;;;21.75;13.80;;;2.70;75.10;;;;;;5055593;28;20493;-74
2023/02/08 05:02:16;;;;;;;19.52;13.30;;;2.70;75.30;;;;;;5054564;28;20025;-74
2023/02/08 05:04:41;;;;;;;24.83;14.60;;;2.70;75.20;;;;;;5052699;28;20048;-74
2023/02/08 05:07:07;;;;;;;19.95;13.00;;;2.70;75.20;;;;;;5052356;28;20021;-74
2023/02/08 05:09:32;;;;;;;21.80;13.50;;;2.70;75.30;;;;;;5051902;28;20029;-74
2023/02/08 05:11:58;;;;;;;19.60;12.35;;;2.60;75.60;;;;;;5051088;28;20037;-75
2023/02/08 05:14:25;;;;;;;22.23;12.55;;;2.60;75.50;;;;;;5052305;28;20067;-74
2023/02/08 05:16:50;;;;;;;22.38;14.18;;;2.60;75.60;;;;;;5052019;28;20048;-75
2023/02/08 05:19:17;;;;;;;22.17;13.27;;;2.50;75.50;;;;;;5052434;28;20061;-75
2023/02/08 05:21:43;;;;;;;20.58;12.65;;;2.50;75.60;;;;;;5052110;28;20095;-74
2023/02/08 05:24:11;;;;;;;20.38;13.38;;;2.50;75.60;;;;;;5050191;28;20029;-75
2023/02/08 05:26:38;;;;;;;23.98;14.15;;;2.50;75.60;;;;;;5051269;28;20264;-74
2023/02/08 05:29:04;;;;;;;21.08;13.30;;;2.50;75.80;;;;;;5050259;28;20025;-74
2023/02/08 05:31:30;;;;;;;21.50;13.60;;;2.50;75.90;;;;;;5051378;28;20132;-75
2023/02/08 05:33:55;;;;;;;22.98;15.27;;;2.40;76.30;;;;;;5052479;28;20629;-74
2023/02/08 05:36:22;;;;;;;21.35;13.95;;;2.40;76.30;;;;;;5050593;28;20074;-74
2023/02/08 05:38:48;;;;;;;22.65;14.43;;;2.40;76.30;;;;;;5062489;28;20021;-74
2023/02/08 05:41:14;;;;;;;23.45;15.23;;;2.30;76.60;;;;;;5050963;28;20435;-75
2023/02/08 05:43:40;;;;;;;20.23;13.82;;;2.30;76.90;;;;;;5051298;28;20066;-74
2023/02/08 05:46:06;;;;;;;23.85;14.90;;;2.30;77.30;;;;;;5050908;28;20013;-74
2023/02/08 05:48:32;;;;;;;24.52;15.88;;;2.30;77.50;;;;;;5049850;28;20108;-74
2023/02/08 05:50:58;;;;;;;24.10;15.48;;;2.20;77.60;;;;;;5050117;28;20022;-74
2023/02/08 05:53:24;;;;;;;29.00;15.68;;;2.30;77.80;;;;;;5050761;28;20029;-74
2023/02/08 05:55:49;;;;;;;24.90;15.38;;;2.20;77.90;;;;;;5037758;28;20024;-74
2023/02/08 05:58:16;;;;;;;28.25;16.83;;;2.20;78.10;;;;;;5047498;28;20021;-75
2023/02/08 06:00:42;;;;;;;23.42;15.57;;;2.20;78.40;;;;;;5048323;28;20025;-75
2023/02/08 06:03:09;;;;;;;25.95;17.40;;;2.20;78.60;;;;;;5047169;28;20059;-75
2023/02/08 06:05:37;;;;;;;22.98;15.18;;;2.20;78.80;;;;;;5031139;28;20026;-75
2023/02/08 06:08:02;;;;;;;23.73;14.82;;;2.20;79.50;;;;;;5049943;28;20032;-74
2023/02/08 06:10:28;;;;;;;31.35;17.10;;;2.10;79.10;;;;;;5050202;28;20025;-74
2023/02/08 06:12:53;;;;;;;23.42;16.20;;;2.10;79.50;;;;;;5050202;28;20063;-74
2023/02/08 06:15:19;;;;;;;27.00;16.25;;;2.10;79.60;;;;;;5049081;28;20063;-74
2023/02/08 06:17:45;;;;;;;27.40;16.30;;;2.10;79.70;;;;;;5049924;28;20522;-74
2023/02/08 06:20:10;;;;;;;26.20;17.05;;;2.00;80.00;;;;;;5049229;28;20499;-74
2023/02/08 06:22:37;;;;;;;28.65;18.08;;;2.00;80.20;;;;;;5050285;28;20040;-73
2023/02/08 06:25:04;;;;;;;25.88;17.00;;;2.00;80.40;;;;;;5050148;28;20127;-74
2023/02/08 06:27:29;;;;;;;30.73;18.08;;;2.00;80.60;;;;;;5049423;28;20056;-74
2023/02/08 06:29:55;;;;;;;29.30;18.17;;;2.00;80.80;;;;;;5049923;28;20029;-73
2023/02/08 06:32:20;;;;;;;30.40;18.88;;;2.00;81.00;;;;;;5049936;28;20449;-75
2023/02/08 06:34:49;;;;;;;28.88;17.45;;;2.00;81.00;;;;;;5048813;28;20017;-74
2023/02/08 06:37:15;;;;;;;30.38;18.10;;;2.00;81.30;;;;;;5049992;28;20033;-75
2023/02/08 06:39:41;;;;;;;30.35;20.00;;;2.00;81.40;;;;;;5049459;28;20021;-74
2023/02/08 06:42:07;;;;;;;30.00;19.80;;;2.00;81.60;;;;;;5049390;28;20063;-74
2023/02/08 06:44:32;;;;;;;28.33;17.90;;;2.00;81.80;;;;;;5049807;28;20048;-74
2023/02/08 06:46:58;;;;;;;27.67;18.70;;;2.00;81.80;;;;;;5048075;28;20036;-73
2023/02/08 06:49:24;;;;;;;31.65;19.33;;;2.00;81.80;;;;;;5049665;28;20036;-74
2023/02/08 06:51:49;;;;;;;30.20;19.15;;;2.00;81.80;;;;;;5049546;28;20570;-73
2023/02/08 06:54:15;;;;;;;29.15;17.88;;;2.00;81.70;;;;;;5049961;28;20089;-74
2023/02/08 06:56:41;;;;;;;28.70;18.80;;;2.00;81.70;;;;;;5048244;28;20032;-74
2023/02/08 06:59:07;;;;;;;36.28;22.33;;;2.00;82.20;;;;;;5049153;28;20029;-74
2023/02/08 07:01:34;;;;;;;33.33;22.23;;;2.00;81.90;;;;;;5049722;28;20036;-73
2023/02/08 07:03:59;;;;;;;33.72;21.95;;;1.90;81.80;;;;;;5047113;28;20056;-74
2023/02/08 07:06:25;;;;;;;38.67;23.15;;;1.90;82.50;;;;;;5049410;28;20503;-74
2023/02/08 07:08:51;;;;;;;34.92;24.90;;;1.90;82.00;;;;;;5047887;28;20714;-74
2023/02/08 07:11:18;;;;;;;37.38;21.38;;;1.90;81.70;;;;;;5048089;28;20036;-73
2023/02/08 07:13:46;;;;;;;41.88;28.80;;;1.90;81.70;;;;;;5045290;28;20044;-74
2023/02/08 07:16:12;;;;;;;27.75;18.85;;;1.90;81.70;;;;;;5042481;28;20106;-74
2023/02/08 07:18:40;;;;;;;29.80;17.33;;;1.90;81.70;;;;;;5044883;28;20582;-73
2023/02/08 07:21:05;;;;;;;32.25;18.85;;;1.90;81.60;;;;;;5047194;28;20495;-74
2023/02/08 07:23:31;;;;;;;30.38;18.67;;;1.90;81.80;;;;;;5047783;28;20025;-74
2023/02/08 07:26:03;;;;;;;26.05;15.10;;;1.90;82.10;;;;;;5045927;28;20096;-74
2023/02/08 07:28:29;;;;;;;28.30;17.10;;;1.90;82.60;;;;;;5046809;28;20053;-73
2023/02/08 07:30:55;;;;;;;24.10;14.75;;;1.90;81.70;;;;;;5046350;28;20485;-74
2023/02/08 07:33:21;;;;;;;29.90;16.80;;;2.00;81.60;;;;;;5047082;28;20021;-74
2023/02/08 07:35:47;;;;;;;27.83;15.93;;;2.20;81.80;;;;;;5045945;28;20074;-74
2023/02/08 07:38:13;;;;;;;21.73;12.02;;;2.70;80.80;;;;;;5048170;28;20025;-72
2023/02/08 07:40:39;;;;;;;24.58;16.17;;;3.20;80.40;;;;;;5046606;28;20017;-72
2023/02/08 07:43:04;;;;;;;21.58;13.88;;;3.70;79.00;;;;;;5048047;28;20408;-72
2023/02/08 07:45:30;;;;;;;23.15;15.23;;;4.20;76.60;;;;;;5044100;28;20021;-73
2023/02/08 07:47:56;;;;;;;25.10;14.90;;;4.60;74.40;;;;;;5036464;28;20071;-74
2023/02/08 07:50:21;;;;;;;24.02;12.85;;;5.00;72.80;;;;;;5046905;28;20132;-75
2023/02/08 07:52:53;;;;;;;22.42;14.45;;;5.50;70.30;;;;;;5048204;28;20110;-74
2023/02/08 07:55:19;;;;;;;18.83;13.43;;;5.80;68.80;;;;;;5045472;28;20025;-76
2023/02/08 07:57:47;;;;;;;20.73;12.60;;;6.00;67.20;;;;;;5047956;28;20025;-75
2023/02/08 08:00:15;;;;;;;20.60;13.60;;;6.10;66.30;;;;;;5045797;28;20386;-74
2023/02/08 08:02:41;;;;;;;21.33;13.23;;;6.00;65.50;;;;;;5046171;28;20044;-75
2023/02/08 08:05:07;;;;;;;18.02;12.38;;;5.90;65.10;;;;;;5044577;28;20036;-75
2023/02/08 08:07:33;;;;;;;25.95;15.23;;;5.90;65.20;;;;;;5045416;28;20028;-74
2023/02/08 08:09:59;;;;;;;20.50;13.20;;;5.90;64.10;;;;;;5046516;28;20021;-75
2023/02/08 08:12:25;;;;;;;20.13;13.32;;;6.00;65.10;;;;;;5046868;28;20146;-76
2023/02/08 08:14:52;;;;;;;21.52;12.93;;;6.20;63.90;;;;;;5047576;28;20032;-76
2023/02/08 08:17:18;;;;;;;20.38;13.02;;;6.40;63.70;;;;;;5050463;28;20052;-76
2023/02/08 08:19:44;;;;;;;21.70;14.02;;;6.50;62.30;;;;;;5048121;28;20822;-74
2023/02/08 08:22:10;;;;;;;20.35;13.73;;;6.60;61.50;;;;;;5046969;28;20414;-76
2023/02/08 08:24:37;;;;;;;20.83;14.50;;;6.70;61.60;;;;;;5046365;28;20063;-76
2023/02/08 08:27:06;;;;;;;20.58;13.07;;;6.70;61.30;;;;;;5046918;28;20041;-77
2023/02/08 08:29:33;;;;;;;21.55;14.00;;;7.00;61.10;;;;;;5045235;28;20397;-76
2023/02/08 08:31:59;;;;;;;20.38;13.00;;;7.20;60.00;;;;;;5047000;28;20106;-76
2023/02/08 08:34:28;;;;;;;18.98;12.85;;;7.40;59.40;;;;;;5049124;28;20506;-77
2023/02/08 08:36:59;;;;;;;25.75;15.40;;;7.60;58.80;;;;;;5051686;28;20812;-75
2023/02/08 08:39:26;;;;;;;;;;;7.70;58.40;;;;;;5047028;28;20021;-73
2023/02/08 08:41:52;;;;;;;21.38;13.13;;;7.90;58.30;;;;;;5045411;28;20306;-75
2023/02/08 08:44:18;;;;;;;20.08;13.65;;;8.00;57.60;;;;;;5046344;28;20022;-74
2023/02/08 08:46:44;;;;;;;19.75;12.48;;;8.20;57.40;;;;;;5046239;28;20111;-74
2023/02/08 08:49:10;;;;;;;17.98;11.05;;;8.20;58.00;;;;;;5046661;28;20025;-74
2023/02/08 08:51:36;;;;;;;19.35;12.98;;;8.20;58.10;;;;;;5045458;28;20021;-74
2023/02/08 08:54:02;;;;;;;18.40;11.35;;;8.10;55.80;;;;;;5045839;28;20025;-74
2023/02/08 08:56:28;;;;;;;16.10;11.98;;;8.00;57.10;;;;;;5047540;28;20368;-74
2023/02/08 08:58:53;;;;;;;16.25;10.25;;;8.00;55.50;;;;;;5047728;28;20075;-74
2023/02/08 09:01:19;;;;;;;18.13;12.20;;;7.90;56.20;;;;;;5047720;28;20143;-74
2023/02/08 09:03:45;;;;;;;18.50;13.10;;;7.90;57.90;;;;;;5047594;28;20139;-75
2023/02/08 09:06:10;;;;;;;16.85;12.10;;;8.00;55.90;;;;;;5048129;28;20439;-75
2023/02/08 09:08:36;;;;;;;17.67;12.68;;;8.10;55.70;;;;;;5046360;28;20032;-75
2023/02/08 09:11:10;;;;;;;19.75;12.98;;;8.20;55.50;;;;;;5048038;28;20100;-75
2023/02/08 09:13:36;;;;;;;17.13;12.05;;;8.30;56.50;;;;;;5047013;28;20544;-75
2023/02/08 09:16:14;;;;;;;20.98;12.75;;;8.40;55.20;;;;;;5046205;28;20029;-75
2023/02/08 09:18:40;;;;;;;17.27;10.10;;;8.60;55.70;;;;;;5047529;28;20079;-75
2023/02/08 09:21:08;;;;;;;17.30;12.05;;;8.70;56.30;;;;;;5046342;28;20120;-75
2023/02/08 09:23:35;;;;;;;16.55;11.25;;;8.80;55.00;;;;;;5047197;28;20095;-75
2023/02/08 09:26:05;;;;;;;16.83;11.82;;;8.90;54.60;;;;;;5046081;28;20406;-74
2023/02/08 09:28:31;;;;;;;;;;;8.80;53.80;;;;;;5053594;28;20517;-75
2023/02/08 09:30:57;;;;;;;18.95;11.23;;;8.80;54.30;;;;;;5051851;28;19908;-76
2023/02/08 09:33:23;;;;;;;18.92;11.23;;;8.80;55.50;;;;;;5053397;28;20025;-76
2023/02/08 09:35:49;;;;;;;18.75;11.82;;;8.80;54.40;;;;;;5054762;28;20033;-77
2023/02/08 09:38:15;;;;;;;18.98;13.02;;;9.00;55.50;;;;;;5052280;28;20100;-76
2023/02/08 09:41:13;;;;;;;18.23;11.38;;;9.00;54.70;;;;;;5052176;28;20031;-76
2023/02/08 09:43:40;;;;;;;20.70;10.93;;;9.10;54.40;;;;;;5051314;28;20091;-76
2023/02/08 09:46:21;;;;;;;18.35;11.05;;;9.10;54.20;;;;;;5050328;28;20112;-75
2023/02/08 09:48:50;;;;;;;15.98;11.23;;;9.20;54.00;;;;;;5039136;28;20100;-75
2023/02/08 09:51:40;;;;;;;14.88;10.48;;;9.30;53.30;;;;;;5051325;28;20044;-76
2023/02/08 09:54:35;;;;;;;17.70;11.25;;;9.50;54.10;;;;;;5041109;28;20546;-75
2023/02/08 09:57:08;;;;;;;14.70;9.90;;;9.60;51.80;;;;;;5040017;28;20036;-76
2023/02/08 09:59:35;;;;;;;16.88;10.68;;;9.70;51.00;;;;;;5046410;28;20017;-75
2023/02/08 10:02:22;;;;;;;17.50;10.85;;;9.80;52.00;;;;;;5052610;28;20040;-76
2023/02/08 10:05:02;;;;;;;18.23;11.35;;;9.90;51.00;;;;;;5051834;28;20021;-75
2023/02/08 10:07:29;;;;;;;19.88;10.43;;;10.00;50.30;;;;;;5052166;28;20060;-76
2023/02/08 10:09:58;;;;;;;16.15;10.13;;;9.90;50.20;;;;;;5052313;28;20033;-75
2023/02/08 10:12:39;;;;;;;18.00;10.13;;;9.90;50.00;;;;;;5050297;28;20024;-76
2023/02/08 10:15:46;;;;;;;19.27;11.32;;;9.80;50.10;;;;;;5051907;28;20104;-76
2023/02/08 10:18:36;;;;;;;12.60;8.32;;;9.80;50.00;;;;;;5050044;28;20422;-75
2023/02/08 10:21:12;;;;;;;16.58;9.43;;;9.70;51.70;;;;;;5050740;28;20115;-75
2023/02/08 10:23:48;;;;;;;15.07;9.35;;;9.80;53.20;;;;;;5046058;28;20031;-75
2023/02/08 10:26:44;;;;;;;18.00;10.77;;;10.10;53.90;;;;;;5059249;28;20395;-75
2023/02/08 10:29:47;;;;;;;15.50;10.35;;;10.00;50.10;;;;;;5045300;28;20280;-76
2023/02/08 10:32:21;;;;;;;14.10;9.95;;;9.90;52.40;;;;;;5048490;28;20055;-75
2023/02/08 10:34:57;;;;;;;12.52;8.02;;;10.00;49.50;;;;;;5051307;28;20098;-76
2023/02/08 10:37:30;;;;;;;12.65;8.25;;;9.90;51.80;;;;;;5050561;28;20036;-75
2023/02/08 10:40:02;;;;;;;15.48;9.07;;;9.80;52.20;;;;;;5050325;28;20029;-75
2023/02/08 10:42:29;;;;;;;15.77;10.30;;;9.60;51.30;;;;;;5039484;28;20052;-75
2023/02/08 10:45:28;;;;;;;13.40;9.35;;;9.70;53.50;;;;;;5052148;28;20044;-76
2023/02/08 10:47:57;;;;;;;14.88;9.75;;;9.90;52.90;;;;;;5045442;28;20033;-76
2023/02/08 10:50:41;;;;;;;14.00;8.00;;;10.00;50.80;;;;;;5037811;28;20356;-76
2023/02/08 10:53:14;;;;;;;16.48;9.70;;;10.00;50.50;;;;;;5051759;28;20617;-77
2023/02/08 10:55:42;;;;;;;15.90;9.95;;;10.10;52.00;;;;;;5048025;28;20032;-75
2023/02/08 10:58:14;;;;;;;14.75;9.75;;;10.20;52.00;;;;;;5051664;28;20145;-76
2023/02/08 11:00:41;;;;;;;13.27;8.35;;;10.20;51.40;;;;;;5049323;28;20549;-76
2023/02/08 11:03:19;;;;;;;14.82;9.43;;;10.40;56.40;;;;;;5048178;28;20107;-76
2023/02/08 11:05:45;;;;;;;13.05;7.80;;;10.50;53.90;;;;;;5052488;28;20025;-77
2023/02/08 11:08:19;;;;;;;15.90;9.13;;;10.50;55.20;;;;;;5051092;28;20071;-76
2023/02/08 11:11:04;;;;;;;12.85;8.70;;;10.60;53.60;;;;;;5051984;28;20543;-76
2023/02/08 11:13:42;;;;;;;17.25;10.43;;;10.80;56.00;;;;;;5047182;28;20025;-76
2023/02/08 11:16:26;;;;;;;14.07;9.10;;;10.90;51.40;;;;;;5051184;28;20031;-77
2023/02/08 11:18:57;;;;;;;14.25;9.27;;;10.90;48.70;;;;;;5047966;28;20091;-78
2023/02/08 11:21:24;;;;;;;14.18;9.18;;;11.00;48.20;;;;;;5046652;28;20025;-75
2023/02/08 11:23:53;;;;;;;14.18;9.52;;;11.00;48.60;;;;;;5048201;28;20052;-77
2023/02/08 11:26:23;;;;;;;14.20;9.02;;;11.00;48.30;;;;;;5047867;28;20024;-78
2023/02/08 11:29:12;;;;;;;13.23;7.75;;;11.10;52.40;;;;;;5047551;28;20021;-77
2023/02/08 11:31:39;;;;;;;14.63;9.23;;;11.30;50.10;;;;;;5044462;28;20034;-76
2023/02/08 11:34:10;;;;;;;15.02;8.57;;;11.40;47.30;;;;;;5046688;28;20433;-76
2023/02/08 11:36:47;;;;;;;14.50;9.05;;;11.50;49.00;;;;;;5046986;28;20025;-77
2023/02/08 11:39:28;;;;;;;14.32;9.18;;;11.50;46.80;;;;;;5047761;28;20025;-77
2023/02/08 11:41:57;;;;;;;15.05;8.95;;;11.80;47.20;;;;;;5043729;28;21362;-75
2023/02/08 11:44:31;;;;;;;13.05;8.27;;;11.90;44.60;;;;;;5046166;28;20020;-76
2023/02/08 11:47:01;;;;;;;11.20;6.85;;;12.00;44.40;;;;;;5048194;28;20021;-76
2023/02/08 11:49:43;;;;;;;11.43;6.65;;;12.20;45.20;;;;;;5047686;28;20025;-76
2023/02/08 11:52:27;;;;;;;12.50;6.20;;;12.30;48.30;;;;;;5045796;28;20029;-76
2023/02/08 11:54:54;;;;;;;14.13;8.60;;;12.40;43.70;;;;;;5046029;28;20029;-76
2023/02/08 11:57:30;;;;;;;13.15;7.95;;;12.40;42.80;;;;;;5048312;28;20049;-76
2023/02/08 12:00:34;;;;;;;12.07;7.25;;;12.40;43.10;;;;;;5045038;28;20445;-76
2023/02/08 12:03:11;;;;;;;11.60;7.13;;;12.50;44.70;;;;;;5004661;28;20065;-76
2023/02/08 12:05:40;;;;;;;12.95;7.32;;;12.50;45.40;;;;;;5042453;28;20040;-76
2023/02/08 12:08:47;;;;;;;10.33;6.70;;;12.60;43.90;;;;;;5048343;28;20059;-75
2023/02/08 12:11:35;;;;;;;12.88;6.93;;;12.60;42.80;;;;;;5053055;28;20029;-75
2023/02/08 12:14:36;;;;;;;10.85;6.65;;;12.40;42.60;;;;;;5041518;28;20125;-75
2023/02/08 12:17:39;;;;;;;13.27;7.10;;;12.40;42.40;;;;;;5048007;28;20111;-76
2023/02/08 12:20:32;;;;;;;10.02;6.63;;;12.50;48.70;;;;;;5047011;28;20114;-74
2023/02/08 12:23:17;;;;;;;13.05;6.25;;;12.50;45.80;;;;;;5041848;28;20048;-75
2023/02/08 12:25:51;;;;;;;10.15;6.78;;;12.50;44.50;;;;;;5047926;28;20433;-75
2023/02/08 12:28:29;;;;;;;10.40;6.80;;;12.50;41.50;;;;;;5038992;28;20064;-75
2023/02/08 12:31:33;;;;;;;10.60;7.15;;;12.70;48.80;;;;;;5048067;28;20041;-75
2023/02/08 12:34:09;;;;;;;13.02;6.82;;;12.70;43.70;;;;;;5038769;28;20021;-75
2023/02/08 12:43:13;;;;;;;11.95;6.93;;;13.10;47.70;;;;;;5046706;28;20047;-74
2023/02/08 12:45:50;;;;;;;12.55;7.22;;;13.10;41.90;;;;;;5046993;28;20081;-74
2023/02/08 12:48:50;;;;;;;10.98;6.60;;;13.10;43.80;;;;;;5048024;28;20036;-74
2023/02/08 12:51:21;;;;;;;14.27;6.60;;;13.10;44.30;;;;;;5045792;28;20053;-76
2023/02/08 12:53:56;;;;;;;10.63;6.18;;;13.10;41.40;;;;;;5045975;28;20029;-75
2023/02/08 12:56:36;;;;;;;8.88;5.22;;;13.20;49.60;;;;;;5043529;28;20025;-75
2023/02/08 12:59:05;;;;;;;10.52;7.03;;;13.20;52.00;;;;;;5046738;28;20824;-75
2023/02/08 13:01:43;;;;;;;9.60;5.78;;;13.20;43.70;;;;;;5048831;28;20475;-75
2023/02/08 13:04:11;;;;;;;10.25;7.10;;;13.10;46.00;;;;;;5052354;28;20029;-75
2023/02/08 13:06:41;;;;;;;11.25;6.05;;;13.30;44.70;;;;;;5051333;28;20029;-75
2023/02/08 13:09:55;;;;;;;11.63;6.87;;;13.30;42.90;;;;;;5045424;28;20418;-75